Time;durP1;ratioP1;P1;durP2;ratioP2;P2;SDS_P1;SDS_P2;PMS_P1;PMS_P2;Temp;Humidity;BMP_temperature;BMP_pressure;BME280_temperature;BME280_humidity;BME280_pressure;Samples;Min_cycle;Max_cycle;Signal;HPM_P1;HPM_P2
2021/12/31 00:00:33;;;;;;;3.03;1.03;;;;;;;12.16;78.91;99386.72;5012285;28;20289;-52
2021/12/31 00:03:00;;;;;;;3.27;1.00;;;;;;;12.14;78.78;99391.28;5012483;28;20753;-54
2021/12/31 00:05:27;;;;;;;3.23;0.93;;;;;;;12.12;79.42;99385.38;5012581;28;20219;-50
2021/12/31 00:07:54;;;;;;;1.83;1.20;;;;;;;12.15;79.14;99385.91;5012642;28;20194;-54
2021/12/31 00:10:23;;;;;;;3.83;1.30;;;;;;;12.14;78.88;99388.66;5012051;28;20225;-51
2021/12/31 00:12:50;;;;;;;1.83;1.10;;;;;;;12.09;79.82;99382.06;5011263;28;20672;-54
2021/12/31 00:15:17;;;;;;;2.40;0.80;;;;;;;12.04;80.09;99380.81;5025855;22;20238;-57
2021/12/31 00:17:44;;;;;;;3.57;1.47;;;;;;;11.99;80.65;99377.78;5011850;28;20209;-60
2021/12/31 00:20:15;;;;;;;3.50;1.30;;;;;;;11.92;81.25;99374.91;5010215;28;20686;-58
2021/12/31 00:23:02;;;;;;;2.00;1.10;;;;;;;11.92;81.00;99386.19;5012236;28;20204;-60
2021/12/31 00:25:31;;;;;;;2.00;1.07;;;;;;;11.81;81.32;99383.72;5012178;28;20575;-57
2021/12/31 00:27:58;;;;;;;3.53;1.20;;;;;;;11.83;81.38;99381.78;5012138;28;20182;-57
2021/12/31 00:30:25;;;;;;;2.20;1.10;;;;;;;11.76;81.84;99381.53;5011662;28;20187;-57
2021/12/31 00:32:52;;;;;;;2.33;1.23;;;;;;;11.82;82.02;99378.38;5011973;28;20197;-56
2021/12/31 00:35:19;;;;;;;2.10;1.10;;;;;;;11.69;82.64;99385.69;5010711;28;20182;-59
2021/12/31 00:37:46;;;;;;;1.73;1.00;;;;;;;11.71;82.82;99372.44;5012022;28;20194;-58
2021/12/31 00:40:16;;;;;;;2.97;1.30;;;;;;;11.67;83.42;99377.97;5011381;28;20598;-58
2021/12/31 00:42:44;;;;;;;1.37;1.00;;;;;;;11.59;83.44;99372.63;5011986;28;20202;-58
2021/12/31 00:45:13;;;;;;;2.70;1.30;;;;;;;11.48;84.16;99375.38;5014102;28;20679;-59
2021/12/31 00:47:41;;;;;;;3.83;0.87;;;;;;;11.45;84.72;99373.03;5016063;28;20189;-56
2021/12/31 00:50:09;;;;;;;3.37;1.30;;;;;;;11.46;84.21;99369.47;5015323;28;20187;-58
2021/12/31 00:52:36;;;;;;;2.90;1.40;;;;;;;11.43;84.85;99367.94;5015839;28;20197;-55
2021/12/31 00:55:04;;;;;;;4.20;1.53;;;;;;;11.49;84.52;99370.00;5015779;28;20189;-58
2021/12/31 00:57:32;;;;;;;1.87;1.00;;;;;;;11.40;84.98;99364.78;5015679;28;20226;-56
2021/12/31 01:00:01;;;;;;;2.80;0.90;;;;;;;11.36;84.47;99366.84;5015040;28;20236;-59
2021/12/31 01:02:29;;;;;;;4.40;1.20;;;;;;;11.33;85.00;99364.50;5015747;28;20663;-56
2021/12/31 01:04:56;;;;;;;4.07;1.30;;;;;;;11.29;85.26;99361.34;5015818;28;20201;-58
2021/12/31 01:07:23;;;;;;;2.77;1.10;;;;;;;11.28;85.05;99357.06;5015466;28;20209;-59
2021/12/31 01:09:51;;;;;;;5.60;1.83;;;;;;;11.22;85.65;99362.84;5014976;28;20268;-56
2021/12/31 01:12:17;;;;;;;2.33;0.97;;;;;;;11.13;85.98;99363.66;5015426;28;20574;-58
2021/12/31 01:14:54;;;;;;;2.37;1.20;;;;;;;11.10;85.81;99359.56;5015583;28;20609;-56
2021/12/31 01:17:38;;;;;;;2.97;1.50;;;;;;;10.98;86.35;99358.03;5015375;28;20222;-56
2021/12/31 01:20:07;;;;;;;2.50;1.20;;;;;;;10.83;86.97;99355.78;5013465;28;20630;-57
2021/12/31 01:22:35;;;;;;;3.27;1.17;;;;;;;10.85;87.35;99366.94;5015185;28;20186;-56
2021/12/31 01:25:04;;;;;;;6.07;0.90;;;;;;;10.83;86.95;99363.63;5013959;28;20277;-56
2021/12/31 01:27:31;;;;;;;2.73;1.20;;;;;;;10.76;87.64;99368.53;5015295;28;20557;-55
2021/12/31 01:29:58;;;;;;;2.90;1.20;;;;;;;10.79;87.05;99364.84;5014611;28;20189;-58
2021/12/31 01:32:26;;;;;;;2.57;1.10;;;;;;;10.70;87.86;99373.50;5015302;28;20186;-52
2021/12/31 01:34:53;;;;;;;2.33;1.30;;;;;;;10.58;88.13;99365.75;5015066;28;20734;-54
2021/12/31 01:37:20;;;;;;;1.50;0.90;;;;;;;10.49;89.09;99374.38;5014734;28;20693;-52
2021/12/31 01:39:46;;;;;;;2.47;1.07;;;;;;;10.46;89.69;99382.47;5014243;28;20236;-54
2021/12/31 01:42:14;;;;;;;2.70;1.30;;;;;;;10.46;89.19;99370.25;5014985;28;20254;-56
2021/12/31 01:44:45;;;;;;;4.00;1.17;;;;;;;10.44;89.83;99379.16;5015099;28;20244;-56
2021/12/31 01:47:15;;;;;;;6.27;1.40;;;;;;;10.51;89.02;99376.88;5014846;28;20277;-58
2021/12/31 01:49:55;;;;;;;1.70;1.30;;;;;;;10.49;88.97;99379.59;5014378;28;20211;-58
2021/12/31 01:52:22;;;;;;;2.37;1.00;;;;;;;10.38;89.16;99375.28;5014730;28;20187;-56
2021/12/31 01:54:49;;;;;;;1.37;1.10;;;;;;;10.44;89.24;99373.94;5014864;28;20604;-56
2021/12/31 01:57:16;;;;;;;6.20;1.33;;;;;;;10.42;89.02;99376.69;5014620;28;20201;-55
2021/12/31 01:59:43;;;;;;;2.63;1.00;;;;;;;10.33;89.03;99370.44;5014175;28;20229;-54
2021/12/31 02:02:10;;;;;;;3.10;1.10;;;;;;;10.22;89.46;99365.31;5014492;28;20196;-58
2021/12/31 02:04:39;;;;;;;3.13;1.33;;;;;;;10.22;89.24;99370.53;5014552;28;20269;-57
2021/12/31 02:07:08;;;;;;;4.03;1.00;;;;;;;10.02;90.28;99370.44;5014496;28;20301;-57
2021/12/31 02:09:39;;;;;;;8.77;1.30;;;;;;;9.86;91.12;99376.09;5014139;28;20185;-57
2021/12/31 02:12:08;;;;;;;3.17;1.10;;;;;;;9.68;91.55;99377.63;5014335;28;20269;-56
2021/12/31 02:14:37;;;;;;;3.63;1.37;;;;;;;9.50;92.47;99369.53;5014267;28;20661;-57
2021/12/31 02:17:07;;;;;;;3.87;1.20;;;;;;;9.32;93.86;99361.44;5014069;28;20720;-56
2021/12/31 02:19:34;;;;;;;4.53;1.30;;;;;;;9.19;95.01;99367.66;5013985;28;20265;-56
2021/12/31 02:22:02;;;;;;;2.33;1.23;;;;;;;9.05;95.38;99365.31;5013892;28;20278;-55
2021/12/31 02:24:29;;;;;;;3.67;1.10;;;;;;;8.99;96.70;99351.84;5014361;28;20663;-55
2021/12/31 02:26:58;;;;;;;3.93;1.30;;;;;;;8.92;97.43;99357.69;5014065;28;20201;-58
2021/12/31 02:29:25;;;;;;;5.37;1.20;;;;;;;8.91;97.84;99349.03;5014162;28;20190;-56
2021/12/31 02:31:53;;;;;;;4.10;1.30;;;;;;;8.85;98.61;99344.31;5013743;28;20196;-55
2021/12/31 02:34:20;;;;;;;2.93;1.30;;;;;;;8.77;98.21;99341.47;5013919;28;20198;-56
2021/12/31 02:36:47;;;;;;;4.63;1.40;;;;;;;8.69;99.40;99339.50;5013784;28;20666;-56
2021/12/31 02:39:15;;;;;;;2.53;0.90;;;;;;;8.69;99.83;99334.28;5013637;28;20264;-54
2021/12/31 02:41:43;;;;;;;2.80;1.10;;;;;;;8.68;99.49;99333.44;5013114;28;20781;-56
2021/12/31 02:44:10;;;;;;;2.60;1.47;;;;;;;8.59;99.26;99334.16;5013735;28;20630;-54
2021/12/31 02:46:36;;;;;;;5.73;1.37;;;;;;;8.51;98.77;99333.94;5014034;28;20284;-55
2021/12/31 02:49:03;;;;;;;6.57;1.10;;;;;;;8.53;100.00;99332.88;5012411;28;20197;-55
2021/12/31 02:51:30;;;;;;;2.80;1.30;;;;;;;8.49;100.00;99330.63;5013166;28;20265;-56
2021/12/31 02:53:59;;;;;;;3.47;1.27;;;;;;;8.37;100.00;99325.44;5013623;28;20190;-57
2021/12/31 02:56:29;;;;;;;5.53;1.33;;;;;;;8.42;100.00;99320.69;5013364;28;20209;-57
2021/12/31 02:58:56;;;;;;;4.67;1.30;;;;;;;8.40;100.00;99317.38;5013478;28;20547;-59
2021/12/31 03:01:23;;;;;;;1.87;1.30;;;;;;;8.32;100.00;99311.09;5012880;28;20695;-55
2021/12/31 03:03:51;;;;;;;4.17;1.30;;;;;;;8.28;100.00;99311.34;5013426;28;20628;-54
2021/12/31 03:06:18;;;;;;;4.77;1.10;;;;;;;8.18;100.00;99305.19;5013416;28;20211;-58
2021/12/31 03:08:48;;;;;;;3.87;1.20;;;;;;;8.11;100.00;99310.06;5012844;28;20658;-55
2021/12/31 03:11:18;;;;;;;3.83;1.27;;;;;;;8.09;100.00;99308.50;5012699;28;20217;-57
2021/12/31 03:13:51;;;;;;;2.87;1.37;;;;;;;8.02;100.00;99305.56;5013418;28;20280;-55
2021/12/31 03:16:20;;;;;;;4.13;1.33;;;;;;;7.94;100.00;99303.56;5013066;28;20217;-52
2021/12/31 03:18:47;;;;;;;3.70;1.53;;;;;;;7.89;100.00;99302.25;5013177;28;20182;-58
2021/12/31 03:21:21;;;;;;;5.23;1.30;;;;;;;7.86;100.00;99305.06;5012303;28;20778;-58
2021/12/31 03:23:49;;;;;;;5.20;1.40;;;;;;;7.79;100.00;99299.53;5013025;28;20194;-57
2021/12/31 03:26:15;;;;;;;1.83;1.30;;;;;;;7.75;100.00;99301.53;5011737;28;20224;-58
2021/12/31 03:28:42;;;;;;;3.03;1.20;;;;;;;7.80;100.00;99309.78;5012989;28;20261;-57
2021/12/31 03:31:11;;;;;;;2.47;1.37;;;;;;;7.72;100.00;99329.53;5012357;28;20498;-58
2021/12/31 03:33:38;;;;;;;2.13;1.10;;;;;;;7.62;100.00;99327.59;5012864;28;20739;-57
2021/12/31 03:36:05;;;;;;;4.03;1.30;;;;;;;7.56;100.00;99335.84;5012677;28;20771;-58
2021/12/31 03:38:32;;;;;;;2.20;1.17;;;;;;;7.60;100.00;99326.06;5013073;28;20608;-57
2021/12/31 03:40:58;;;;;;;3.43;1.20;;;;;;;7.55;100.00;99326.41;5012148;28;20581;-58
2021/12/31 03:43:25;;;;;;;1.60;1.27;;;;;;;7.60;100.00;99326.06;5012735;28;20255;-58
2021/12/31 03:45:53;;;;;;;2.27;1.13;;;;;;;7.61;100.00;99327.72;5012659;28;20212;-57
2021/12/31 03:48:22;;;;;;;2.80;1.20;;;;;;;7.51;100.00;99325.78;5012532;28;20192;-58
2021/12/31 03:50:49;;;;;;;5.20;1.77;;;;;;;7.43;100.00;99325.53;5012061;28;20677;-57
2021/12/31 03:53:16;;;;;;;2.67;1.00;;;;;;;7.30;100.00;99330.00;5012779;28;20189;-57
2021/12/31 03:55:43;;;;;;;3.47;1.30;;;;;;;7.24;100.00;99326.91;5012540;28;20757;-57
2021/12/31 03:58:10;;;;;;;7.37;1.20;;;;;;;7.19;100.00;99330.75;5012560;28;20188;-58
2021/12/31 04:00:37;;;;;;;2.93;1.30;;;;;;;7.19;100.00;99328.16;5011871;28;20215;-58
2021/12/31 04:03:07;;;;;;;3.77;1.40;;;;;;;7.18;100.00;99335.13;5012574;28;20272;-58
2021/12/31 04:05:37;;;;;;;1.60;0.90;;;;;;;7.17;100.00;99327.44;5012379;28;20212;-57
2021/12/31 04:08:04;;;;;;;3.10;1.10;;;;;;;7.26;100.00;99333.75;5012705;28;20180;-57
2021/12/31 04:10:31;;;;;;;2.10;1.00;;;;;;;7.22;100.00;99335.72;5011889;28;20182;-58
2021/12/31 04:12:58;;;;;;;2.47;1.00;;;;;;;7.20;100.00;99335.00;5012437;28;20192;-58
2021/12/31 04:15:25;;;;;;;2.50;1.27;;;;;;;7.22;100.00;99327.94;5012005;28;20188;-58
2021/12/31 04:17:52;;;;;;;3.03;1.30;;;;;;;7.19;100.00;99333.34;5012189;28;20280;-57
2021/12/31 04:20:24;;;;;;;3.70;1.30;;;;;;;7.20;100.00;99319.44;5010907;28;20213;-57
2021/12/31 04:22:54;;;;;;;2.77;1.10;;;;;;;7.08;100.00;99321.16;5012242;28;20217;-58
2021/12/31 04:25:22;;;;;;;3.70;1.80;;;;;;;7.05;100.00;99317.00;5012116;28;20184;-57
2021/12/31 04:27:49;;;;;;;4.40;1.07;;;;;;;7.04;100.00;99317.94;5012346;28;20278;-57
2021/12/31 04:30:16;;;;;;;3.77;1.10;;;;;;;7.12;100.00;99301.00;5011440;28;20185;-57
2021/12/31 04:32:43;;;;;;;3.83;1.10;;;;;;;7.00;100.00;99303.53;5012107;28;20299;-57
2021/12/31 04:35:11;;;;;;;3.93;1.20;;;;;;;6.94;100.00;99299.63;5012153;28;20267;-56
2021/12/31 04:37:41;;;;;;;2.57;1.30;;;;;;;6.98;100.00;99304.59;5012238;28;20203;-58
2021/12/31 04:40:11;;;;;;;4.23;1.20;;;;;;;6.92;100.00;99298.06;5011545;28;20678;-57
2021/12/31 04:42:40;;;;;;;3.07;1.00;;;;;;;6.83;100.00;99301.34;5012072;28;20327;-58
2021/12/31 04:45:08;;;;;;;4.63;1.20;;;;;;;6.81;100.00;99298.84;5011989;28;20278;-58
2021/12/31 04:47:35;;;;;;;2.50;1.33;;;;;;;6.73;100.00;99294.22;5011880;28;20189;-58
2021/12/31 04:50:02;;;;;;;2.10;1.00;;;;;;;6.69;100.00;99294.53;5011509;28;20185;-56
2021/12/31 04:52:29;;;;;;;2.87;1.30;;;;;;;6.74;100.00;99295.88;5011860;28;20603;-58
2021/12/31 04:54:55;;;;;;;3.17;1.10;;;;;;;6.71;100.00;99295.25;5011845;28;20189;-57
2021/12/31 04:57:25;;;;;;;4.57;1.40;;;;;;;6.63;100.00;99304.41;5011664;28;20287;-57
2021/12/31 04:59:52;;;;;;;4.33;1.20;;;;;;;6.70;100.00;99296.19;5011348;28;20211;-57
2021/12/31 05:02:19;;;;;;;1.77;0.97;;;;;;;6.71;100.00;99288.31;5011779;28;20196;-56
2021/12/31 05:04:46;;;;;;;4.37;1.17;;;;;;;6.62;100.00;99296.75;5011859;28;20617;-58
2021/12/31 05:07:12;;;;;;;5.87;1.23;;;;;;;6.60;100.00;99293.44;5011716;28;20280;-57
2021/12/31 05:09:39;;;;;;;4.30;1.33;;;;;;;6.55;100.00;99292.94;5011296;28;20268;-57
2021/12/31 05:12:12;;;;;;;2.97;1.40;;;;;;;6.48;100.00;99298.56;5011901;28;20216;-57
2021/12/31 05:14:40;;;;;;;7.40;1.23;;;;;;;6.60;100.00;99296.03;5011748;28;20251;-58
2021/12/31 05:17:06;;;;;;;4.10;1.63;;;;;;;6.53;100.00;99300.00;5011568;28;20216;-58
2021/12/31 05:19:33;;;;;;;2.27;1.40;;;;;;;6.47;100.00;99307.28;5011421;28;20271;-58
2021/12/31 05:22:00;;;;;;;2.70;1.50;;;;;;;6.51;100.00;99307.88;5011531;28;20569;-56
2021/12/31 05:24:27;;;;;;;5.97;1.20;;;;;;;6.45;100.00;99309.16;5011538;28;20268;-57
2021/12/31 05:26:53;;;;;;;2.73;1.20;;;;;;;6.45;100.00;99297.91;5011572;28;20284;-57
2021/12/31 05:29:20;;;;;;;3.73;1.20;;;;;;;6.40;100.00;99300.00;5011588;28;20181;-57
2021/12/31 05:31:48;;;;;;;3.50;1.10;;;;;;;6.36;100.00;99296.81;5013929;28;20366;-58
2021/12/31 05:34:15;;;;;;;4.47;1.03;;;;;;;6.39;100.00;99293.16;5015136;28;20185;-57
2021/12/31 05:36:42;;;;;;;3.70;1.40;;;;;;;6.46;100.00;99279.69;5015185;28;20230;-56
2021/12/31 05:39:10;;;;;;;2.47;1.30;;;;;;;6.38;100.00;99271.59;5015021;28;20195;-56
2021/12/31 05:41:39;;;;;;;7.37;1.40;;;;;;;6.45;100.00;99277.19;5014644;28;20212;-58
2021/12/31 05:44:06;;;;;;;6.97;1.37;;;;;;;6.48;100.00;99282.16;5015148;28;20721;-58
2021/12/31 05:46:33;;;;;;;2.77;1.40;;;;;;;6.43;100.00;99279.91;5014880;28;20212;-59
2021/12/31 05:49:02;;;;;;;5.17;1.23;;;;;;;6.32;100.00;99278.06;5015187;28;20689;-56
2021/12/31 05:51:30;;;;;;;5.40;1.17;;;;;;;6.35;100.00;99293.41;5014173;28;20206;-55
2021/12/31 05:53:57;;;;;;;4.00;1.60;;;;;;;6.29;100.00;99282.63;5014872;28;20702;-58
2021/12/31 05:56:23;;;;;;;2.13;1.27;;;;;;;6.25;100.00;99284.63;5014710;28;20280;-58
2021/12/31 05:58:50;;;;;;;4.13;1.37;;;;;;;6.41;100.00;99288.69;5014677;28;20199;-58
2021/12/31 06:01:17;;;;;;;3.27;1.60;;;;;;;6.33;100.00;99273.69;5013980;28;20288;-58
2021/12/31 06:03:47;;;;;;;5.97;2.97;;;;;;;6.32;100.00;99266.84;5014686;28;20276;-58
2021/12/31 06:06:15;;;;;;;4.93;2.77;;;;;;;6.30;100.00;99266.97;5014387;28;20708;-57
2021/12/31 06:08:42;;;;;;;14.90;7.70;;;;;;;6.31;100.00;99260.00;5014554;28;20673;-57
2021/12/31 06:11:09;;;;;;;9.97;5.37;;;;;;;6.29;100.00;99272.25;5013973;28;20561;-57
2021/12/31 06:13:36;;;;;;;9.30;3.20;;;;;;;6.24;100.00;99276.94;5014362;28;20264;-58
2021/12/31 06:16:05;;;;;;;6.77;3.00;;;;;;;6.23;100.00;99277.88;5014618;28;20212;-58
2021/12/31 06:18:32;;;;;;;4.27;2.57;;;;;;;6.13;100.00;99275.09;5014262;28;20185;-56
2021/12/31 06:20:59;;;;;;;20.53;12.33;;;;;;;6.12;100.00;99282.03;5013696;28;20287;-60
2021/12/31 06:23:27;;;;;;;10.13;5.47;;;;;;;6.12;100.00;99283.81;5014277;28;20267;-60
2021/12/31 06:25:54;;;;;;;3.60;2.23;;;;;;;6.17;100.00;99287.72;5014116;28;20754;-60
2021/12/31 06:28:20;;;;;;;5.77;2.30;;;;;;;6.11;100.00;99282.16;5014595;28;20231;-58
2021/12/31 06:30:47;;;;;;;9.57;5.07;;;;;;;6.14;100.00;99276.75;5013481;28;20184;-57
2021/12/31 06:33:14;;;;;;;4.67;3.03;;;;;;;6.11;100.00;99280.38;5014453;28;20193;-59
2021/12/31 06:35:41;;;;;;;4.37;2.33;;;;;;;6.10;100.00;99280.50;5013933;28;20222;-56
2021/12/31 06:38:08;;;;;;;9.27;4.70;;;;;;;6.18;100.00;99279.00;5013911;28;20199;-57
2021/12/31 06:40:37;;;;;;;5.60;2.97;;;;;;;6.22;100.00;99287.41;5013274;28;20194;-55
2021/12/31 06:43:04;;;;;;;5.47;3.27;;;;;;;6.31;100.00;99285.94;5013459;28;20192;-55
2021/12/31 06:45:31;;;;;;;4.17;1.63;;;;;;;6.36;100.00;99276.06;5013685;28;20283;-57
2021/12/31 06:47:58;;;;;;;5.30;1.83;;;;;;;6.43;100.00;99276.44;5013859;28;20212;-54
2021/12/31 06:50:24;;;;;;;2.43;1.33;;;;;;;6.46;100.00;99281.44;5013223;28;20193;-56
2021/12/31 06:52:51;;;;;;;2.73;1.70;;;;;;;6.46;100.00;99286.63;5013671;28;20272;-57
2021/12/31 06:55:18;;;;;;;6.97;1.53;;;;;;;6.44;100.00;99284.16;5013561;28;20662;-60
2021/12/31 06:57:49;;;;;;;5.17;2.10;;;;;;;6.42;100.00;99290.34;5013558;28;20685;-55
2021/12/31 07:00:17;;;;;;;7.90;1.47;;;;;;;6.44;100.00;99296.25;5012897;28;20191;-59
2021/12/31 07:02:44;;;;;;;3.40;1.50;;;;;;;6.42;100.00;99304.16;5013501;28;20307;-58
2021/12/31 07:05:11;;;;;;;3.33;1.60;;;;;;;6.37;100.00;99295.88;5013363;28;20196;-57
2021/12/31 07:07:37;;;;;;;3.37;1.60;;;;;;;6.31;100.00;99301.50;5013410;28;20271;-59
2021/12/31 07:10:05;;;;;;;4.23;1.60;;;;;;;6.24;100.00;99298.50;5012919;28;20279;-58
2021/12/31 07:12:32;;;;;;;1.60;1.20;;;;;;;6.16;100.00;99298.22;5013342;28;20271;-55
2021/12/31 07:15:00;;;;;;;3.73;1.47;;;;;;;6.22;100.00;99296.94;5013171;28;20271;-57
2021/12/31 07:17:29;;;;;;;2.73;1.80;;;;;;;6.14;100.00;99290.53;5012992;28;20214;-58
2021/12/31 07:19:57;;;;;;;1.77;1.10;;;;;;;6.14;100.00;99295.72;5012692;28;20271;-56
2021/12/31 07:22:24;;;;;;;2.40;1.53;;;;;;;6.14;100.00;99293.13;5012890;28;20217;-56
2021/12/31 07:24:51;;;;;;;5.70;1.40;;;;;;;6.20;100.00;99295.28;5013297;28;20188;-58
2021/12/31 07:27:18;;;;;;;4.87;1.87;;;;;;;6.28;100.00;99289.59;5012789;28;20291;-57
2021/12/31 07:29:44;;;;;;;2.33;1.30;;;;;;;6.22;100.00;99287.41;5012630;28;20189;-56
2021/12/31 07:32:12;;;;;;;4.93;1.80;;;;;;;6.22;100.00;99294.34;5012846;28;20677;-57
2021/12/31 07:34:39;;;;;;;5.73;1.57;;;;;;;6.18;100.00;99299.75;5012859;28;20185;-57
2021/12/31 07:37:06;;;;;;;3.80;1.40;;;;;;;6.16;100.00;99311.97;5012765;28;20212;-55
2021/12/31 07:39:34;;;;;;;4.50;1.97;;;;;;;6.24;100.00;99303.69;5012478;28;20199;-60
2021/12/31 07:42:01;;;;;;;7.73;2.00;;;;;;;6.41;100.00;99304.25;5012549;28;20209;-55
2021/12/31 07:44:34;;;;;;;13.07;4.60;;;;;;;6.52;100.00;99306.94;5011424;28;20662;-57
2021/12/31 07:47:00;;;;;;;3.43;2.80;;;;;;;6.58;100.00;99308.28;5012721;28;20308;-57
2021/12/31 07:49:28;;;;;;;5.70;3.00;;;;;;;6.68;100.00;99314.47;5012633;28;20221;-58
2021/12/31 07:51:55;;;;;;;6.60;2.07;;;;;;;6.73;100.00;99311.53;5012020;28;20672;-57
2021/12/31 07:54:22;;;;;;;5.20;2.40;;;;;;;6.69;100.00;99321.31;5012582;28;20272;-59
2021/12/31 07:56:49;;;;;;;3.60;1.57;;;;;;;6.68;100.00;99324.84;5012389;28;20212;-58
2021/12/31 07:59:16;;;;;;;5.30;3.03;;;;;;;6.71;100.00;99324.63;5012685;28;20734;-59
2021/12/31 08:01:43;;;;;;;5.63;1.97;;;;;;;6.68;100.00;99330.03;5012008;28;20204;-58
2021/12/31 08:04:09;;;;;;;3.47;1.50;;;;;;;6.64;100.00;99328.59;5012504;28;20263;-57
2021/12/31 08:06:37;;;;;;;5.33;2.27;;;;;;;6.66;100.00;99331.91;5012564;28;20287;-60
2021/12/31 08:09:04;;;;;;;6.03;2.00;;;;;;;6.71;100.00;99339.38;5012364;28;20195;-57
2021/12/31 08:11:31;;;;;;;3.33;1.60;;;;;;;6.74;100.00;99346.94;5011852;28;20181;-57
2021/12/31 08:13:58;;;;;;;7.80;2.30;;;;;;;6.71;100.00;99344.56;5011149;28;20193;-57
2021/12/31 08:16:24;;;;;;;10.27;4.30;;;;;;;6.73;100.00;99347.88;5012189;28;20231;-56
2021/12/31 08:18:54;;;;;;;6.60;3.47;;;;;;;6.73;100.00;99347.88;5012184;28;20184;-57
2021/12/31 08:21:21;;;;;;;3.67;2.60;;;;;;;6.75;100.00;99340.81;5011606;28;20211;-58
2021/12/31 08:23:49;;;;;;;6.00;3.10;;;;;;;6.79;100.00;99342.25;5011043;28;20188;-56
2021/12/31 08:26:16;;;;;;;3.37;2.10;;;;;;;6.82;100.00;99346.41;5012562;28;20219;-57
2021/12/31 08:28:43;;;;;;;3.73;1.83;;;;;;;6.81;100.00;99340.38;5012153;28;20192;-60
2021/12/31 08:31:09;;;;;;;3.20;1.53;;;;;;;6.79;100.00;99353.47;5011540;28;20276;-58
2021/12/31 08:33:36;;;;;;;6.03;2.00;;;;;;;6.88;100.00;99345.97;5012156;28;20189;-56
2021/12/31 08:36:03;;;;;;;7.57;1.90;;;;;;;6.86;100.00;99346.06;5011893;28;20212;-56
2021/12/31 08:38:30;;;;;;;2.70;1.27;;;;;;;6.83;100.00;99340.28;5012077;28;20216;-58
2021/12/31 08:40:59;;;;;;;2.70;1.40;;;;;;;6.87;100.00;99337.34;5010463;28;20296;-60
2021/12/31 08:43:26;;;;;;;62.70;31.43;;;;;;;6.89;100.00;99326.88;5011974;28;20209;-58
2021/12/31 08:45:53;;;;;;;23.10;10.93;;;;;;;6.94;100.00;99327.34;5011932;28;20247;-57
2021/12/31 08:48:20;;;;;;;8.77;5.07;;;;;;;7.00;100.00;99329.50;5011930;28;20271;-59
2021/12/31 08:50:47;;;;;;;4.07;2.07;;;;;;;6.97;100.00;99315.91;5011293;28;20203;-60
2021/12/31 08:53:14;;;;;;;5.23;3.00;;;;;;;7.00;100.00;99310.50;5011949;28;20731;-58
2021/12/31 08:55:42;;;;;;;6.57;3.03;;;;;;;7.05;100.00;99298.03;5011922;28;20208;-55
2021/12/31 08:58:10;;;;;;;3.67;1.70;;;;;;;7.15;100.00;99286.03;5012059;28;20191;-58
2021/12/31 09:00:38;;;;;;;5.73;1.80;;;;;;;7.29;100.00;99281.59;5011285;28;20223;-57
2021/12/31 09:03:04;;;;;;;5.93;2.00;;;;;;;7.38;100.00;99281.72;5011752;28;20292;-57
2021/12/31 09:05:33;;;;;;;7.73;4.00;;;;;;;7.44;100.00;99283.03;5012884;28;20777;-59
2021/12/31 09:07:59;;;;;;;4.67;2.33;;;;;;;7.54;100.00;99276.19;5015661;28;20189;-59
2021/12/31 09:10:26;;;;;;;7.80;2.87;;;;;;;7.61;100.00;99266.19;5015844;28;20275;-57
2021/12/31 09:12:54;;;;;;;4.93;1.53;;;;;;;7.70;100.00;99269.84;5015453;28;20594;-56
2021/12/31 09:15:22;;;;;;;4.50;1.50;;;;;;;7.83;100.00;99273.19;5015249;28;20685;-56
2021/12/31 09:17:54;;;;;;;3.87;1.57;;;;;;;7.88;100.00;99270.25;5015415;28;20191;-58
2021/12/31 09:20:21;;;;;;;3.57;1.47;;;;;;;7.91;100.00;99279.56;5013624;28;20200;-54
2021/12/31 09:22:48;;;;;;;5.10;1.40;;;;;;;7.96;100.00;99290.44;5015316;28;20215;-57
2021/12/31 09:25:15;;;;;;;2.60;1.90;;;;;;;8.03;100.00;99295.97;5015436;28;20263;-57
2021/12/31 09:27:42;;;;;;;7.03;3.50;;;;;;;8.09;100.00;99287.72;5015253;28;20184;-59
2021/12/31 09:30:11;;;;;;;3.07;1.80;;;;;;;8.15;100.00;99289.03;5014585;28;20272;-59
2021/12/31 09:32:39;;;;;;;3.03;1.23;;;;;;;8.19;100.00;99293.84;5015480;28;20182;-57
2021/12/31 09:35:07;;;;;;;2.10;1.20;;;;;;;8.24;100.00;99294.31;5013975;28;20284;-58
2021/12/31 09:37:34;;;;;;;16.77;14.00;;;;;;;8.37;100.00;99299.41;5015129;28;20186;-58
2021/12/31 09:40:02;;;;;;;4.07;2.50;;;;;;;8.47;100.00;99296.09;5014477;28;20236;-57
2021/12/31 09:42:28;;;;;;;4.43;3.07;;;;;;;8.57;100.00;99300.47;5014933;28;20239;-59
2021/12/31 09:44:56;;;;;;;8.63;4.40;;;;;;;8.67;100.00;99310.97;5015262;28;20271;-57
2021/12/31 09:47:22;;;;;;;5.87;2.30;;;;;;;8.75;100.00;99301.72;5015014;28;20744;-60
2021/12/31 09:49:51;;;;;;;5.60;3.20;;;;;;;8.79;100.00;99303.13;5014490;28;20242;-56
2021/12/31 09:52:18;;;;;;;6.40;3.50;;;;;;;8.84;100.00;99298.38;5014827;28;20610;-58
2021/12/31 09:54:47;;;;;;;5.10;2.70;;;;;;;8.86;100.00;99299.09;5014670;28;20186;-56
2021/12/31 09:57:14;;;;;;;4.10;2.10;;;;;;;8.95;100.00;99300.16;5014543;28;20214;-57
2021/12/31 09:59:42;;;;;;;3.93;2.17;;;;;;;9.01;100.00;99304.84;5014159;28;20188;-57
2021/12/31 10:02:10;;;;;;;3.33;1.57;;;;;;;9.09;100.00;99310.25;5014534;28;20198;-56
2021/12/31 10:04:56;;;;;;;3.20;1.43;;;;;;;9.13;100.00;99309.06;5014604;28;20197;-54
2021/12/31 10:07:24;;;;;;;3.00;1.43;;;;;;;9.20;100.00;99301.56;5014540;28;20264;-54
2021/12/31 10:10:06;;;;;;;4.13;1.90;;;;;;;9.32;100.00;99314.56;5013831;28;20178;-56
2021/12/31 10:12:48;;;;;;;3.30;1.73;;;;;;;9.44;100.00;99311.75;5014445;28;20243;-57
2021/12/31 10:15:17;;;;;;;6.37;2.63;;;;;;;9.57;100.00;99306.34;5011861;28;20201;-55
2021/12/31 10:17:43;;;;;;;4.60;2.90;;;;;;;9.71;100.00;99304.38;5013197;28;20227;-58
2021/12/31 10:20:12;;;;;;;3.23;1.90;;;;;;;9.78;100.00;99292.47;5013556;28;20268;-55
2021/12/31 10:22:39;;;;;;;5.07;2.60;;;;;;;9.86;100.00;99284.03;5014126;28;20762;-53
2021/12/31 10:25:18;;;;;;;5.57;2.20;;;;;;;9.95;100.00;99285.00;5014253;28;20267;-58
2021/12/31 10:27:44;;;;;;;3.13;1.90;;;;;;;10.03;100.00;99286.03;5013086;28;20592;-55
2021/12/31 10:30:11;;;;;;;3.67;2.00;;;;;;;10.10;100.00;99288.91;5013804;28;20198;-55
2021/12/31 10:32:40;;;;;;;3.90;2.60;;;;;;;10.16;100.00;99303.22;5013999;28;20259;-58
2021/12/31 10:35:13;;;;;;;3.57;1.67;;;;;;;10.21;100.00;99300.22;5014058;28;20190;-57
2021/12/31 10:37:44;;;;;;;6.17;2.10;;;;;;;10.31;100.00;99301.91;5013914;28;20280;-59
2021/12/31 10:40:13;;;;;;;3.70;2.10;;;;;;;10.30;100.00;99299.44;5013316;28;20276;-58
2021/12/31 10:42:42;;;;;;;4.27;2.43;;;;;;;10.34;100.00;99290.38;5012511;28;20275;-59
2021/12/31 10:45:09;;;;;;;8.73;2.13;;;;;;;10.37;100.00;99289.28;5013689;28;20186;-55
2021/12/31 10:47:38;;;;;;;4.23;2.47;;;;;;;10.39;100.00;99288.22;5013815;28;20652;-59
2021/12/31 10:50:18;;;;;;;5.03;2.60;;;;;;;10.50;100.00;99279.44;5011946;28;20293;-58
2021/12/31 10:52:57;;;;;;;4.50;2.67;;;;;;;10.61;100.00;99260.22;5013737;28;20193;-57
2021/12/31 10:55:27;;;;;;;4.50;2.97;;;;;;;10.67;100.00;99267.50;5013575;28;20187;-57
2021/12/31 10:57:57;;;;;;;10.47;5.47;;;;;;;10.84;99.98;99262.59;5013751;28;20357;-59
2021/12/31 11:00:26;;;;;;;5.47;3.20;;;;;;;10.93;98.70;99269.59;5012966;28;20281;-57
2021/12/31 11:02:53;;;;;;;4.53;2.80;;;;;;;11.07;98.30;99256.13;5013369;28;20215;-60
2021/12/31 11:05:22;;;;;;;3.50;2.40;;;;;;;11.22;97.76;99258.31;5013450;28;20275;-57
2021/12/31 11:07:50;;;;;;;5.37;2.37;;;;;;;11.33;96.83;99254.72;5013364;28;20189;-57
2021/12/31 11:10:19;;;;;;;4.83;2.73;;;;;;;11.42;96.74;99255.69;5012789;28;20732;-60
2021/12/31 11:12:48;;;;;;;8.20;5.83;;;;;;;11.54;96.01;99261.56;5013318;28;20752;-56
2021/12/31 11:15:16;;;;;;;6.53;2.90;;;;;;;11.65;94.31;99264.00;5013070;28;20720;-59
2021/12/31 11:17:43;;;;;;;9.13;6.23;;;;;;;11.72;94.40;99259.03;5013316;28;20182;-56
2021/12/31 11:20:12;;;;;;;5.60;3.60;;;;;;;11.91;91.91;99258.97;5013086;28;20278;-55
2021/12/31 11:22:40;;;;;;;6.63;3.97;;;;;;;12.15;91.20;99249.81;5013033;28;20286;-55
2021/12/31 11:25:21;;;;;;;3.90;2.57;;;;;;;12.45;91.04;99260.94;5012909;28;20260;-59
2021/12/31 11:27:48;;;;;;;4.63;2.20;;;;;;;12.73;88.13;99263.50;5011662;28;20206;-53
2021/12/31 11:30:37;;;;;;;5.47;2.20;;;;;;;12.78;88.04;99265.69;5012584;28;20249;-56
2021/12/31 11:33:09;;;;;;;2.57;2.00;;;;;;;12.86;88.87;99271.00;5013053;28;20191;-55
2021/12/31 11:35:38;;;;;;;5.33;2.40;;;;;;;12.93;88.50;99272.06;5011596;28;20220;-57
2021/12/31 11:38:09;;;;;;;4.43;2.63;;;;;;;12.91;88.44;99278.41;5012708;28;20534;-55